Time;durP1;ratioP1;P1;durP2;ratioP2;P2;SDS_P1;SDS_P2;PMS_P1;PMS_P2;Temp;Humidity;BMP_temperature;BMP_pressure;BME280_temperature;BME280_humidity;BME280_pressure;Samples;Min_cycle;Max_cycle;Signal;HPM_P1;HPM_P2
2021/05/14 00:02:57;;;;;;;28.80;13.90;;;;;;;12.52;82.01;99158.08;1808809;78;22752;-70
2021/05/14 00:05:23;;;;;;;23.80;13.43;;;;;;;12.52;82.01;99158.08;1794844;79;21076;-70
2021/05/14 00:07:49;;;;;;;21.33;12.63;;;;;;;12.48;82.07;99152.88;1794487;79;21027;-70
2021/05/14 00:10:17;;;;;;;24.43;12.20;;;;;;;12.45;82.13;99151.14;1772527;79;20979;-70
2021/05/14 00:12:43;;;;;;;24.87;13.15;;;;;;;12.43;82.20;99151.34;1765055;81;20935;-70
2021/05/14 00:15:09;;;;;;;23.05;12.78;;;;;;;12.39;82.26;99146.11;1765079;81;21548;-70
2021/05/14 00:17:35;;;;;;;23.35;12.45;;;;;;;12.39;82.31;99150.13;1796322;79;21611;-70
2021/05/14 00:20:03;;;;;;;21.37;12.20;;;;;;;12.38;82.37;99151.17;1796446;79;21091;-70
2021/05/14 00:22:30;;;;;;;23.18;12.88;;;;;;;12.36;82.42;99143.87;1796461;79;21587;-70
2021/05/14 00:24:56;;;;;;;22.27;12.55;;;;;;;12.35;82.49;99141.42;1796325;79;20913;-70
2021/05/14 00:27:22;;;;;;;24.63;12.43;;;;;;;12.34;82.54;99141.94;1796399;79;21063;-70
2021/05/14 00:29:48;;;;;;;21.80;11.33;;;;;;;12.34;82.58;99141.11;1796178;79;20988;-70
2021/05/14 00:32:14;;;;;;;17.82;10.78;;;;;;;12.34;82.61;99149.95;1796265;79;21296;-70
2021/05/14 00:34:40;;;;;;;19.77;11.12;;;;;;;12.36;82.64;99145.20;1796449;79;21008;-70
2021/05/14 00:37:06;;;;;;;17.37;10.13;;;;;;;12.35;82.68;99148.90;1796212;79;20925;-70
2021/05/14 00:39:32;;;;;;;16.82;9.38;;;;;;;12.34;82.71;99149.13;1765419;79;21570;-70
2021/05/14 00:41:58;;;;;;;17.77;9.15;;;;;;;12.32;82.75;99147.99;1765173;79;20944;-70
2021/05/14 00:44:33;;;;;;;23.27;10.72;;;;;;;12.31;82.77;99151.72;1765273;81;21114;-70
2021/05/14 00:47:01;;;;;;;16.60;9.30;;;;;;;12.32;82.80;99151.17;1791611;79;21067;-70
2021/05/14 00:49:27;;;;;;;13.15;8.35;;;;;;;12.29;82.84;99151.09;1796231;79;21048;-70
2021/05/14 00:51:56;;;;;;;15.48;9.90;;;;;;;12.26;82.91;99149.36;1796498;79;21499;-70
2021/05/14 00:54:22;;;;;;;14.58;9.40;;;;;;;12.26;82.95;99148.02;1795576;79;21008;-70
2021/05/14 00:56:48;;;;;;;14.98;9.48;;;;;;;12.25;82.98;99150.38;1796536;79;21008;-70
2021/05/14 00:59:14;;;;;;;15.53;9.28;;;;;;;12.22;83.01;99148.96;1796243;79;21103;-70
2021/05/14 01:01:40;;;;;;;15.10;9.83;;;;;;;12.23;83.07;99151.95;1793635;79;20960;-70
2021/05/14 01:04:06;;;;;;;15.50;9.68;;;;;;;12.22;83.08;99148.13;1786957;80;20878;-69
2021/05/14 01:06:32;;;;;;;16.90;9.43;;;;;;;12.19;83.12;99154.73;1756962;81;21050;-70
2021/05/14 01:08:59;;;;;;;16.60;9.98;;;;;;;12.20;83.19;99155.05;1756928;81;21257;-70
2021/05/14 01:11:25;;;;;;;18.50;10.53;;;;;;;12.19;83.22;99160.08;1756814;81;21591;-70
2021/05/14 01:13:50;;;;;;;16.48;10.38;;;;;;;12.19;83.24;99154.73;1756358;81;20888;-70
2021/05/14 01:16:16;;;;;;;18.82;10.45;;;;;;;12.16;83.31;99157.83;1756502;81;20908;-70
2021/05/14 01:18:42;;;;;;;17.75;10.32;;;;;;;12.16;83.34;99157.83;1756471;81;20896;-70
2021/05/14 01:21:08;;;;;;;16.82;10.45;;;;;;;12.16;83.37;99157.00;1756207;81;21256;-70
2021/05/14 01:23:34;;;;;;;17.62;10.95;;;;;;;12.16;83.40;99157.83;1756252;81;21043;-70
2021/05/14 01:26:01;;;;;;;19.15;11.48;;;;;;;12.14;83.43;99154.53;1755903;81;21476;-70
2021/05/14 01:28:27;;;;;;;14.35;10.20;;;;;;;12.14;83.44;99148.39;1779459;80;21083;-70
2021/05/14 01:30:54;;;;;;;16.67;10.93;;;;;;;12.14;83.46;99151.06;1755105;81;21711;-70
2021/05/14 01:33:20;;;;;;;18.25;11.10;;;;;;;12.13;83.52;99144.89;1787638;80;21207;-70
2021/05/14 01:35:46;;;;;;;16.40;10.60;;;;;;;12.12;83.56;99148.59;1774383;80;20989;-70
2021/05/14 01:38:12;;;;;;;19.45;11.38;;;;;;;12.12;83.59;99152.59;1756074;81;21086;-70
2021/05/14 01:40:38;;;;;;;18.90;10.30;;;;;;;12.08;83.62;99150.03;1756321;81;21018;-70
2021/05/14 01:43:04;;;;;;;20.25;11.93;;;;;;;12.07;83.68;99151.05;1756289;81;21574;-70
2021/05/14 01:45:30;;;;;;;19.02;11.70;;;;;;;12.05;83.73;99156.31;1756351;81;21114;-70
2021/05/14 01:47:57;;;;;;;22.75;12.05;;;;;;;12.02;83.74;99156.22;1756278;81;21627;-70
2021/05/14 01:50:23;;;;;;;18.75;11.40;;;;;;;12.01;83.79;99157.25;1756221;81;21074;-70
2021/05/14 01:52:48;;;;;;;18.95;12.45;;;;;;;12.01;83.80;99166.59;1756476;81;20899;-70
2021/05/14 01:55:15;;;;;;;18.00;11.45;;;;;;;12.00;83.84;99163.61;1756074;81;21033;-70
2021/05/14 01:57:41;;;;;;;17.95;11.83;;;;;;;12.00;83.88;99164.95;1758153;80;21002;-70
2021/05/14 02:00:08;;;;;;;19.60;12.88;;;;;;;11.99;83.91;99154.80;1787311;80;21546;-70
2021/05/14 02:02:34;;;;;;;19.87;12.58;;;;;;;12.01;83.95;99154.57;1775471;80;21101;-70
2021/05/14 02:05:00;;;;;;;20.82;12.73;;;;;;;12.01;83.97;99158.07;1755852;81;20946;-70
2021/05/14 02:07:26;;;;;;;16.27;11.30;;;;;;;12.01;83.99;99157.25;1756102;81;21624;-70
2021/05/14 02:09:53;;;;;;;19.57;12.00;;;;;;;11.99;84.03;99155.31;1756067;81;21230;-70
2021/05/14 02:12:19;;;;;;;20.88;12.60;;;;;;;11.99;84.04;99161.98;1755719;81;21061;-70
2021/05/14 02:14:45;;;;;;;18.95;12.10;;;;;;;11.96;84.08;99156.53;1756196;81;20938;-70
2021/05/14 02:17:11;;;;;;;24.98;13.55;;;;;;;11.86;84.11;99138.78;1755940;81;20899;-70
2021/05/14 02:19:37;;;;;;;22.90;13.55;;;;;;;11.95;84.14;99162.09;1756005;81;20891;-70
2021/05/14 02:22:04;;;;;;;21.40;14.25;;;;;;;11.94;84.17;99160.45;1756602;80;21742;-70
2021/05/14 02:24:31;;;;;;;22.30;13.93;;;;;;;11.94;84.19;99163.12;1756009;80;21048;-70
2021/05/14 02:26:57;;;;;;;20.43;14.05;;;;;;;11.92;84.21;99167.86;1755794;81;21024;-70
2021/05/14 02:29:23;;;;;;;22.42;13.58;;;;;;;11.90;84.26;99170.73;1756621;80;20962;-70
2021/05/14 02:31:49;;;;;;;22.48;13.72;;;;;;;11.90;84.27;99172.58;1756042;81;21097;-70
2021/05/14 02:34:15;;;;;;;22.95;12.85;;;;;;;11.88;84.30;99171.98;1755978;81;21048;-70
2021/05/14 02:36:41;;;;;;;21.12;13.65;;;;;;;11.86;84.32;99172.17;1755929;81;20994;-70
2021/05/14 02:39:08;;;;;;;26.00;14.35;;;;;;;11.70;84.35;99157.89;1756071;81;20918;-70
2021/05/14 02:41:36;;;;;;;21.93;13.72;;;;;;;11.70;84.35;99157.89;1755976;81;21679;-70
2021/05/14 02:44:03;;;;;;;21.42;13.78;;;;;;;11.79;84.42;99171.87;1756207;81;21054;-70
2021/05/14 02:46:29;;;;;;;22.42;13.22;;;;;;;11.78;84.45;99174.25;1756621;81;21104;-70
2021/05/14 02:48:55;;;;;;;25.12;14.83;;;;;;;11.76;84.48;99174.95;1756270;81;21085;-70
2021/05/14 02:51:21;;;;;;;26.52;14.68;;;;;;;11.76;84.55;99174.95;1757047;80;20853;-70
2021/05/14 02:53:47;;;;;;;25.52;14.78;;;;;;;11.76;84.55;99174.95;1756653;81;20873;-70
2021/05/14 02:56:13;;;;;;;25.48;16.20;;;;;;;11.79;84.57;99173.20;1756449;81;20908;-70
2021/05/14 02:58:39;;;;;;;20.05;14.80;;;;;;;11.79;84.56;99175.88;1757294;80;21753;-70
2021/05/14 03:01:05;;;;;;;25.52;15.78;;;;;;;11.79;84.58;99178.55;1756309;81;20964;-70
2021/05/14 03:03:31;;;;;;;20.90;14.10;;;;;;;11.78;84.60;99178.27;1756882;81;21616;-70
2021/05/14 03:05:57;;;;;;;26.20;15.48;;;;;;;11.80;84.62;99182.87;1756873;81;20936;-70
2021/05/14 03:08:23;;;;;;;22.17;15.98;;;;;;;11.81;84.62;99185.86;1756801;81;20935;-70
2021/05/14 03:10:49;;;;;;;19.77;13.40;;;;;;;11.82;84.61;99186.97;1757222;80;21178;-70
2021/05/14 03:13:15;;;;;;;24.72;15.30;;;;;;;11.81;84.59;99188.02;1756837;81;20876;-70
2021/05/14 03:15:41;;;;;;;19.20;13.90;;;;;;;11.83;84.56;99190.46;1757035;81;20913;-70
2021/05/14 03:18:07;;;;;;;21.10;14.28;;;;;;;11.83;84.56;99190.46;1757107;81;20925;-70
2021/05/14 03:20:33;;;;;;;24.18;16.02;;;;;;;11.84;84.58;99191.61;1759402;80;21662;-70
2021/05/14 03:22:59;;;;;;;21.37;14.87;;;;;;;11.71;84.53;99177.45;1787941;80;21101;-70
2021/05/14 03:25:26;;;;;;;21.05;15.70;;;;;;;11.81;84.53;99192.53;1787830;80;21024;-70
2021/05/14 03:27:52;;;;;;;22.60;16.20;;;;;;;11.78;84.51;99194.28;1788147;80;21076;-70
2021/05/14 03:30:18;;;;;;;20.65;15.43;;;;;;;11.75;84.54;99198.71;1788137;80;20865;-70
2021/05/14 03:32:45;;;;;;;21.95;16.12;;;;;;;11.74;84.55;99197.06;1788458;80;20929;-70
2021/05/14 03:35:11;;;;;;;19.95;15.18;;;;;;;11.72;84.56;99199.09;1764643;80;21552;-70
2021/05/14 03:37:37;;;;;;;21.10;15.55;;;;;;;11.69;84.52;99200.81;1756927;81;20980;-70
2021/05/14 03:40:16;;;;;;;22.93;16.32;;;;;;;11.67;84.54;99195.70;1756982;81;20984;-70
2021/05/14 03:42:33;;;;;;;22.15;15.78;;;;;;;11.66;84.53;99197.23;1754806;81;21024;-70
2021/05/14 03:44:59;;;;;;;22.93;15.88;;;;;;;11.64;84.51;99205.97;1756870;81;20975;-70
2021/05/14 03:47:25;;;;;;;26.57;15.58;;;;;;;11.61;84.51;99202.38;1756709;81;21017;-70
2021/05/14 03:49:51;;;;;;;25.35;16.27;;;;;;;11.60;84.52;99207.41;1756988;80;21540;-70
2021/05/14 03:52:17;;;;;;;21.52;15.18;;;;;;;11.59;84.51;99208.42;1756940;81;20962;-70
2021/05/14 03:54:43;;;;;;;29.95;17.80;;;;;;;11.58;84.52;99208.11;1757131;81;21512;-70
2021/05/14 03:57:10;;;;;;;25.97;18.10;;;;;;;11.57;84.53;99213.16;1756737;81;20869;-70
2021/05/14 03:59:38;;;;;;;22.85;16.40;;;;;;;11.56;84.51;99215.52;1757005;81;21842;-70
2021/05/14 04:02:04;;;;;;;23.22;16.40;;;;;;;11.53;84.53;99210.91;1756978;80;21556;-70
2021/05/14 04:04:30;;;;;;;21.40;15.00;;;;;;;11.39;84.46;99189.23;1756592;80;21014;-70
2021/05/14 04:06:56;;;;;;;21.52;16.05;;;;;;;11.39;84.46;99189.23;1756612;81;20907;-70
2021/05/14 04:09:29;;;;;;;22.82;16.05;;;;;;;11.50;84.55;99203.81;1756757;81;21062;-70
2021/05/14 04:12:08;;;;;;;23.52;16.35;;;;;;;11.50;84.56;99199.27;1756045;81;21036;-70
2021/05/14 04:14:30;;;;;;;24.07;17.35;;;;;;;11.51;84.54;99203.59;1752677;81;21054;-70
2021/05/14 04:17:05;;;;;;;26.25;17.62;;;;;;;11.54;84.55;99208.52;1779392;80;21009;-70
2021/05/14 04:19:31;;;;;;;29.40;19.42;;;;;;;11.54;84.54;99204.52;1787734;80;21036;-70
2021/05/14 04:21:58;;;;;;;22.98;16.73;;;;;;;11.53;84.56;99213.58;1787748;80;21028;-70
2021/05/14 04:24:25;;;;;;;27.93;17.82;;;;;;;11.54;84.56;99211.70;1787842;80;21117;-70
2021/05/14 04:26:53;;;;;;;24.90;15.95;;;;;;;11.56;84.56;99214.18;1787597;80;21013;-70
2021/05/14 04:29:19;;;;;;;23.47;14.90;;;;;;;11.58;84.53;99218.78;1786959;80;20959;-70
2021/05/14 04:31:46;;;;;;;20.82;15.00;;;;;;;11.57;84.53;99218.50;1787546;80;21032;-70
2021/05/14 04:34:13;;;;;;;21.10;15.00;;;;;;;11.58;84.53;99226.29;1787805;80;20981;-70
2021/05/14 04:36:41;;;;;;;19.90;15.00;;;;;;;11.58;84.51;99224.13;1765264;80;21784;-70
2021/05/14 04:39:08;;;;;;;21.40;14.55;;;;;;;11.57;84.48;99222.00;1748620;82;21584;-70
2021/05/14 04:41:34;;;;;;;19.55;13.65;;;;;;;11.57;84.48;99222.51;1748577;82;21092;-70
2021/05/14 04:44:00;;;;;;;18.27;13.08;;;;;;;11.57;84.47;99226.00;1756671;81;20991;-70
2021/05/14 04:46:26;;;;;;;16.80;12.45;;;;;;;11.57;84.46;99224.67;1748649;82;21077;-70
2021/05/14 04:48:52;;;;;;;19.23;14.28;;;;;;;11.56;84.44;99228.36;1756496;81;21430;-70
2021/05/14 04:51:19;;;;;;;26.52;15.20;;;;;;;11.57;84.42;99230.52;1757061;80;21599;-70
2021/05/14 04:53:46;;;;;;;22.58;15.18;;;;;;;11.59;84.42;99227.12;1756906;80;21001;-70
2021/05/14 04:56:14;;;;;;;25.52;15.93;;;;;;;11.56;84.39;99227.02;1756833;81;20988;-70
2021/05/14 04:58:41;;;;;;;23.52;16.27;;;;;;;11.54;84.38;99229.88;1756757;81;21627;-70
2021/05/14 05:01:08;;;;;;;21.48;15.08;;;;;;;11.51;84.40;99231.63;1756893;81;21067;-70
2021/05/14 05:03:34;;;;;;;22.75;14.53;;;;;;;11.50;84.38;99232.65;1771685;80;21012;-70
2021/05/14 05:06:04;;;;;;;20.92;15.00;;;;;;;11.49;84.38;99240.38;1771544;80;21012;-70
2021/05/14 05:08:30;;;;;;;20.72;14.87;;;;;;;11.51;84.36;99236.14;1755771;81;21592;-70
2021/05/14 05:10:56;;;;;;;23.25;16.15;;;;;;;11.50;84.36;99235.86;1755101;81;20964;-70
2021/05/14 05:13:22;;;;;;;22.98;15.75;;;;;;;11.51;84.36;99233.47;1755215;81;21611;-70
2021/05/14 05:15:48;;;;;;;24.05;16.95;;;;;;;11.52;84.35;99238.63;1754855;81;20881;-70
2021/05/14 05:18:14;;;;;;;27.60;15.88;;;;;;;11.54;84.33;99243.74;1754114;81;21008;-70
2021/05/14 05:20:40;;;;;;;22.60;15.40;;;;;;;11.56;84.34;99247.05;1754677;81;20901;-70
2021/05/14 05:23:06;;;;;;;22.55;15.40;;;;;;;11.59;84.32;99251.15;1754864;81;20932;-70
2021/05/14 05:25:32;;;;;;;18.82;13.80;;;;;;;11.59;84.31;99255.16;1755606;81;21003;-70
2021/05/14 05:27:58;;;;;;;19.25;14.15;;;;;;;11.60;84.31;99250.12;1755196;81;21584;-70
2021/05/14 05:30:24;;;;;;;22.90;14.38;;;;;;;11.60;84.30;99256.30;1756268;80;20968;-70
2021/05/14 05:32:52;;;;;;;21.87;14.68;;;;;;;11.60;84.28;99260.81;1751379;80;21056;-70
2021/05/14 05:35:19;;;;;;;19.30;14.78;;;;;;;11.61;84.26;99259.80;1785607;80;21575;-70
2021/05/14 05:37:45;;;;;;;20.50;14.95;;;;;;;11.64;84.25;99259.38;1785162;80;21055;-70
2021/05/14 05:40:11;;;;;;;22.55;15.20;;;;;;;11.65;84.22;99270.35;1776060;80;21022;-70
2021/05/14 05:42:37;;;;;;;31.05;16.37;;;;;;;11.65;84.20;99267.67;1753247;80;21055;-70
2021/05/14 05:45:05;;;;;;;23.25;15.25;;;;;;;11.67;84.19;99266.98;1755307;81;20909;-71
2021/05/14 05:47:34;;;;;;;31.95;17.60;;;;;;;11.69;84.15;99265.73;1755460;81;21013;-70
2021/05/14 05:49:59;;;;;;;22.95;16.10;;;;;;;11.72;84.13;99263.20;1721720;82;21851;-70
2021/05/14 05:52:25;;;;;;;21.27;13.88;;;;;;;11.74;84.12;99267.84;1694883;84;21086;-70
2021/05/14 05:54:51;;;;;;;22.25;15.60;;;;;;;11.71;84.09;99282.44;1720456;83;20929;-70
2021/05/14 05:57:17;;;;;;;21.00;14.65;;;;;;;11.70;84.04;99275.41;1694875;84;20917;-70
2021/05/14 05:59:43;;;;;;;21.05;13.68;;;;;;;11.69;84.05;99280.94;1720539;83;21049;-70
2021/05/14 06:02:09;;;;;;;23.02;14.50;;;;;;;11.68;84.02;99281.98;1710271;83;21916;-70
2021/05/14 06:04:35;;;;;;;34.18;17.10;;;;;;;11.69;84.01;99284.95;1749531;81;20988;-70
2021/05/14 06:07:01;;;;;;;32.95;14.58;;;;;;;11.70;84.01;99285.27;1748268;82;21556;-70
2021/05/14 06:09:27;;;;;;;36.77;14.70;;;;;;;11.72;83.98;99280.55;1748800;82;20940;-70
2021/05/14 06:11:53;;;;;;;20.70;13.98;;;;;;;11.71;83.96;99287.77;1748729;82;20971;-70
2021/05/14 06:14:19;;;;;;;20.08;12.70;;;;;;;11.69;83.94;99288.44;1748893;80;20941;-70
2021/05/14 06:16:45;;;;;;;17.52;11.97;;;;;;;11.66;83.92;99288.85;1746735;80;21588;-70
2021/05/14 06:19:15;;;;;;;21.82;13.72;;;;;;;11.64;83.92;99288.25;1745709;80;21036;-70
2021/05/14 06:21:45;;;;;;;18.42;12.40;;;;;;;11.65;83.91;99284.53;1754416;79;21106;-70
2021/05/14 06:24:08;;;;;;;18.73;13.35;;;;;;;11.68;83.92;99281.98;1741109;80;21559;-70
2021/05/14 06:26:34;;;;;;;17.77;13.10;;;;;;;11.67;83.90;99288.34;1748973;80;21251;-70
2021/05/14 06:29:00;;;;;;;17.85;12.03;;;;;;;11.63;83.87;99287.93;1739860;80;20963;-70
2021/05/14 06:31:26;;;;;;;16.10;11.33;;;;;;;11.62;83.87;99292.13;1746136;80;21096;-70
2021/05/14 06:33:52;;;;;;;15.13;11.65;;;;;;;11.56;83.87;99278.27;1741935;80;20933;-70
2021/05/14 06:36:18;;;;;;;14.00;10.40;;;;;;;11.67;83.88;99296.36;1749882;80;21682;-70
2021/05/14 06:38:44;;;;;;;14.70;11.48;;;;;;;11.66;83.87;99292.03;1746583;80;21137;-70
2021/05/14 06:41:10;;;;;;;21.87;12.23;;;;;;;11.68;83.85;99299.34;1744414;80;20970;-70
2021/05/14 06:43:36;;;;;;;13.70;10.45;;;;;;;11.77;83.71;99299.47;1752520;80;20996;-70
2021/05/14 06:46:02;;;;;;;15.65;10.88;;;;;;;11.77;83.71;99299.47;1739213;80;20893;-70
2021/05/14 06:48:28;;;;;;;13.65;10.80;;;;;;;11.78;83.81;99301.13;1747468;80;21052;-70
2021/05/14 06:50:55;;;;;;;16.12;11.12;;;;;;;11.78;83.79;99296.61;1741925;80;21711;-70
2021/05/14 06:53:21;;;;;;;15.60;10.45;;;;;;;11.79;83.79;99302.75;1738200;80;21639;-70
2021/05/14 06:55:47;;;;;;;16.07;11.18;;;;;;;11.75;83.80;99301.55;1750811;80;21071;-70
2021/05/14 06:58:14;;;;;;;14.85;11.18;;;;;;;11.74;83.80;99305.23;1753287;80;20945;-70
2021/05/14 07:00:40;;;;;;;17.82;12.55;;;;;;;11.72;83.80;99309.94;1747371;80;21417;-70
2021/05/14 07:03:06;;;;;;;15.35;10.90;;;;;;;11.73;83.83;99308.92;1745009;81;21094;-70
2021/05/14 07:05:32;;;;;;;15.35;10.85;;;;;;;11.75;83.81;99304.21;1733919;81;22594;-69
2021/05/14 07:07:58;;;;;;;16.70;11.40;;;;;;;11.75;83.82;99307.68;1720141;83;21062;-70
2021/05/14 07:10:24;;;;;;;14.38;10.85;;;;;;;11.77;83.78;99305.64;1717733;81;20955;-70
2021/05/14 07:12:50;;;;;;;15.95;11.48;;;;;;;11.84;83.79;99310.98;1721906;83;20916;-70
2021/05/14 07:15:16;;;;;;;17.87;12.35;;;;;;;11.91;83.77;99311.30;1725254;81;21600;-70
2021/05/14 07:17:42;;;;;;;18.80;11.50;;;;;;;11.97;83.75;99310.98;1717920;81;20867;-70
2021/05/14 07:20:10;;;;;;;13.88;10.95;;;;;;;12.03;83.73;99309.64;1718144;82;21705;-70
2021/05/14 07:22:36;;;;;;;20.90;10.05;;;;;;;12.07;83.68;99309.26;1717368;82;21552;-70
2021/05/14 07:25:04;;;;;;;20.68;11.55;;;;;;;12.10;83.66;99318.20;1715672;82;20915;-70
2021/05/14 07:27:30;;;;;;;20.05;11.10;;;;;;;12.16;83.64;99323.53;1720404;82;21200;-70
2021/05/14 07:29:56;;;;;;;14.45;10.48;;;;;;;12.22;83.59;99324.04;1725129;82;21581;-70
2021/05/14 07:32:22;;;;;;;12.25;9.73;;;;;;;12.27;83.56;99328.27;1724675;82;20974;-70
2021/05/14 07:34:48;;;;;;;12.50;9.20;;;;;;;12.29;83.47;99329.38;1727384;82;21048;-70
2021/05/14 07:37:15;;;;;;;15.43;10.95;;;;;;;12.29;83.42;99328.86;1733194;82;20905;-70
2021/05/14 07:39:41;;;;;;;14.13;8.98;;;;;;;12.30;83.39;99336.38;1729727;82;21170;-70
2021/05/14 07:42:07;;;;;;;13.13;9.58;;;;;;;12.33;83.29;99339.45;1725439;82;21020;-70
2021/05/14 07:44:33;;;;;;;14.95;10.63;;;;;;;12.36;83.25;99332.86;1722896;82;21559;-70
2021/05/14 07:46:59;;;;;;;13.20;10.03;;;;;;;12.37;83.19;99335.34;1737663;81;20870;-70
2021/05/14 07:49:25;;;;;;;14.90;10.48;;;;;;;12.37;83.15;99334.01;1735745;82;21124;-70
2021/05/14 07:51:51;;;;;;;13.43;10.48;;;;;;;12.33;83.08;99338.13;1737062;82;21087;-70
2021/05/14 07:54:17;;;;;;;14.30;10.23;;;;;;;12.34;83.04;99345.13;1746732;80;21558;-70
2021/05/14 07:56:43;;;;;;;15.13;9.95;;;;;;;12.37;82.98;99350.05;1754529;80;20951;-70
2021/05/14 07:59:11;;;;;;;17.52;9.80;;;;;;;12.44;82.94;99344.69;1760132;80;21490;-70
2021/05/14 08:01:38;;;;;;;12.53;9.03;;;;;;;12.51;82.84;99352.19;1740809;80;21039;-70
2021/05/14 08:04:05;;;;;;;13.68;9.60;;;;;;;12.60;82.78;99346.09;1753311;80;21105;-70
2021/05/14 08:06:32;;;;;;;12.73;9.18;;;;;;;12.66;82.72;99350.63;1732277;81;21067;-70
2021/05/14 08:09:00;;;;;;;12.03;9.13;;;;;;;12.73;82.62;99354.11;1748735;80;21012;-70
2021/05/14 08:11:26;;;;;;;10.25;7.97;;;;;;;12.72;82.54;99357.81;1746663;80;21038;-70
2021/05/14 08:13:52;;;;;;;11.38;8.38;;;;;;;12.69;82.45;99366.26;1751835;80;20964;-70
2021/05/14 08:16:18;;;;;;;10.10;8.10;;;;;;;12.68;82.35;99365.43;1751521;80;21088;-70
2021/05/14 08:18:44;;;;;;;11.85;8.48;;;;;;;12.68;82.28;99365.43;1757918;80;21069;-71
2021/05/14 08:21:10;;;;;;;10.95;8.65;;;;;;;12.67;82.20;99366.97;1749267;80;21040;-70
2021/05/14 08:23:36;;;;;;;10.10;7.60;;;;;;;12.63;82.10;99364.42;1753603;80;20951;-70
2021/05/14 08:26:02;;;;;;;8.28;5.75;;;;;;;12.59;82.01;99368.55;1746755;80;20890;-70
2021/05/14 08:28:27;;;;;;;6.05;5.37;;;;;;;12.53;81.92;99365.66;1756099;80;21593;-70
2021/05/14 08:30:53;;;;;;;9.00;4.55;;;;;;;12.51;81.86;99361.04;1752374;80;20862;-70
2021/05/14 08:33:19;;;;;;;6.25;4.35;;;;;;;12.61;81.81;99357.11;1716874;80;21005;-70
2021/05/14 08:35:45;;;;;;;6.10;4.83;;;;;;;12.72;81.71;99360.48;1735377;81;20920;-70
2021/05/14 08:38:11;;;;;;;4.80;4.20;;;;;;;12.79;81.62;99361.30;1741027;82;20967;-70
2021/05/14 08:40:38;;;;;;;7.65;4.03;;;;;;;12.82;81.58;99363.55;1729321;81;21007;-70
2021/05/14 08:43:05;;;;;;;6.90;4.87;;;;;;;12.80;81.51;99365.62;1737062;81;21067;-70
2021/05/14 08:45:32;;;;;;;7.17;4.78;;;;;;;12.76;81.45;99363.05;1745402;80;21082;-70
2021/05/14 08:47:58;;;;;;;7.33;4.75;;;;;;;12.78;81.39;99369.00;1754463;80;21563;-70
2021/05/14 08:50:28;;;;;;;9.65;5.62;;;;;;;12.84;81.33;99372.20;1752775;80;20904;-70
2021/05/14 08:52:54;;;;;;;12.63;7.40;;;;;;;12.85;81.24;99369.81;1754113;80;21128;-70
2021/05/14 08:55:23;;;;;;;10.68;9.10;;;;;;;12.82;81.18;99369.73;1755134;80;20927;-70
2021/05/14 08:57:51;;;;;;;18.05;13.15;;;;;;;12.91;81.16;99370.33;1755692;80;21065;-70
2021/05/14 09:00:18;;;;;;;17.65;12.23;;;;;;;13.11;81.07;99371.13;1753045;79;21441;-70
2021/05/14 09:02:44;;;;;;;21.60;12.25;;;;;;;13.23;80.97;99376.10;1753223;80;21063;-70
2021/05/14 09:05:28;;;;;;;20.12;11.70;;;;;;;13.35;80.87;99373.59;1752609;80;21622;-69
2021/05/14 09:07:59;;;;;;;9.63;7.00;;;;;;;13.40;80.75;99377.81;1749491;80;21083;-70
2021/05/14 09:10:27;;;;;;;9.30;6.50;;;;;;;13.34;80.64;99379.46;1750081;80;21057;-69
2021/05/14 09:12:53;;;;;;;4.37;3.20;;;;;;;13.32;80.57;99385.56;1756465;80;21066;-70
2021/05/14 09:15:30;;;;;;;3.50;1.80;;;;;;;13.20;80.43;99383.22;1744998;80;21019;-69
2021/05/14 09:18:15;;;;;;;3.12;1.95;;;;;;;13.02;80.35;99385.72;1736914;80;21844;-69
2021/05/14 09:20:59;;;;;;;1.95;1.70;;;;;;;12.87;80.29;99391.85;1737576;80;21652;-70
2021/05/14 09:23:32;;;;;;;3.83;2.27;;;;;;;12.90;80.26;99390.09;1746327;80;21630;-70
2021/05/14 09:26:07;;;;;;;12.63;7.80;;;;;;;12.88;80.23;99390.80;1755157;79;21028;-70
2021/05/14 09:28:39;;;;;;;6.55;4.60;;;;;;;12.88;80.22;99400.16;1757108;80;21043;-69
2021/05/14 09:31:22;;;;;;;2.47;2.22;;;;;;;12.83;80.20;99399.98;1751266;80;21050;-69
2021/05/14 09:33:51;;;;;;;7.17;4.20;;;;;;;12.80;80.20;99398.55;1755180;80;21051;-69
2021/05/14 09:36:25;;;;;;;7.00;3.25;;;;;;;12.79;80.23;99404.10;1748717;80;21061;-69
2021/05/14 09:38:59;;;;;;;4.62;2.20;;;;;;;12.78;80.21;99405.13;1738407;80;21145;-69
2021/05/14 09:41:43;;;;;;;3.05;2.25;;;;;;;12.84;80.24;99405.65;1737496;80;21618;-69
2021/05/14 09:44:18;;;;;;;3.25;2.45;;;;;;;12.92;80.25;99404.07;1759296;80;21066;-69
2021/05/14 09:46:52;;;;;;;3.17;2.33;;;;;;;12.88;80.22;99409.53;1748311;80;21051;-69
2021/05/14 09:49:21;;;;;;;3.95;3.05;;;;;;;12.86;80.21;99411.09;1759621;80;21568;-69
2021/05/14 09:51:50;;;;;;;4.78;3.52;;;;;;;12.87;80.19;99419.95;1742028;80;21571;-69
2021/05/14 09:54:26;;;;;;;9.40;5.40;;;;;;;12.86;80.16;99418.30;1746034;80;21064;-69
2021/05/14 09:59:44;;;;;;;6.72;4.28;;;;;;;12.84;80.14;99419.03;1748942;80;21112;-69
2021/05/14 10:02:37;;;;;;;14.98;7.53;;;;;;;12.79;80.11;99417.48;1746092;80;21117;-68
2021/05/14 10:05:13;;;;;;;7.65;3.40;;;;;;;12.83;80.08;99420.88;1709254;83;21102;-69
2021/05/14 10:07:37;;;;;;;16.77;6.87;;;;;;;12.83;80.04;99420.05;1710936;82;21609;-69
2021/05/14 10:10:08;;;;;;;6.15;3.55;;;;;;;12.77;80.02;99418.22;1710448;83;21158;-69
2021/05/14 10:12:36;;;;;;;20.72;8.50;;;;;;;12.72;80.01;99418.00;1713776;83;21050;-68
2021/05/14 10:15:04;;;;;;;13.03;6.25;;;;;;;12.67;80.03;99423.14;1682008;85;21526;-69
2021/05/14 10:17:30;;;;;;;12.68;5.83;;;;;;;12.63;80.03;99425.41;1683781;83;21622;-69
2021/05/14 10:19:57;;;;;;;5.95;3.40;;;;;;;12.63;80.05;99425.95;1704944;82;20931;-70
2021/05/14 10:22:29;;;;;;;13.95;6.22;;;;;;;12.65;80.03;99421.20;1702162;83;21106;-69
2021/05/14 10:24:58;;;;;;;7.35;3.75;;;;;;;12.70;80.04;99424.09;1702134;82;21152;-69
2021/05/14 10:27:29;;;;;;;8.45;5.72;;;;;;;12.74;80.04;99422.11;1697826;83;21108;-69
2021/05/14 10:30:00;;;;;;;7.10;3.87;;;;;;;12.79;80.00;99423.66;1700728;83;21054;-69
2021/05/14 10:32:48;;;;;;;10.68;4.17;;;;;;;12.88;79.98;99422.91;1696103;84;21034;-69
2021/05/14 10:35:26;;;;;;;6.35;4.92;;;;;;;12.95;79.95;99429.07;1708969;82;21115;-69
2021/05/14 10:38:02;;;;;;;7.37;5.12;;;;;;;13.01;79.90;99430.42;1694452;84;21391;-69
2021/05/14 10:40:34;;;;;;;5.42;3.83;;;;;;;13.18;79.85;99433.49;1694921;84;21663;-69
2021/05/14 10:43:04;;;;;;;7.22;3.30;;;;;;;13.36;79.75;99425.61;1695874;82;21041;-70
2021/05/14 10:45:40;;;;;;;5.05;2.62;;;;;;;13.45;79.62;99427.01;1695751;84;21576;-70
2021/05/14 10:48:19;;;;;;;2.65;1.80;;;;;;;13.46;79.54;99425.98;1696081;84;21720;-70
2021/05/14 10:50:57;;;;;;;2.00;1.80;;;;;;;13.41;79.49;99425.78;1696720;84;21072;-69
2021/05/14 10:53:45;;;;;;;9.95;3.47;;;;;;;13.23;79.40;99435.55;1707355;83;21045;-69
2021/05/14 10:56:21;;;;;;;4.58;3.17;;;;;;;13.10;79.35;99433.71;1725080;83;21578;-69
2021/05/14 10:59:03;;;;;;;4.78;2.80;;;;;;;13.08;79.32;99435.76;1725514;83;21011;-69
2021/05/14 11:01:37;;;;;;;6.25;2.80;;;;;;;13.17;79.25;99438.53;1725090;83;21209;-69
2021/05/14 11:04:07;;;;;;;3.98;2.17;;;;;;;13.26;79.17;99437.29;1725280;82;21074;-69
2021/05/14 11:06:43;;;;;;;6.75;3.02;;;;;;;13.27;79.11;99434.89;1720667;83;21586;-70
2021/05/14 11:09:13;;;;;;;5.50;2.90;;;;;;;13.32;79.06;99437.78;1724482;83;21593;-70
2021/05/14 11:12:06;;;;;;;4.20;2.90;;;;;;;13.37;79.02;99447.32;1724758;81;21003;-70
2021/05/14 11:14:45;;;;;;;4.95;2.35;;;;;;;13.40;78.92;99440.23;1725394;83;21326;-70
2021/05/14 11:17:17;;;;;;;5.60;3.47;;;;;;;13.33;78.80;99442.11;1725284;83;21075;-69
2021/05/14 11:19:50;;;;;;;5.08;2.90;;;;;;;13.31;78.78;99445.49;1725388;83;21049;-70
2021/05/14 11:22:27;;;;;;;6.62;3.02;;;;;;;13.28;78.69;99451.79;1725202;83;21031;-70
2021/05/14 11:25:01;;;;;;;3.45;2.80;;;;;;;13.23;78.62;99448.94;1725478;83;21046;-70
2021/05/14 11:27:30;;;;;;;3.52;2.20;;;;;;;13.18;78.50;99459.44;1725359;83;21101;-70
2021/05/14 11:30:01;;;;;;;8.28;2.55;;;;;;;13.13;78.42;99460.05;1724601;83;21087;-70